createdAt,value
2022-10-09T00:00:19.702Z,9.279819
2022-10-09T00:01:19.706Z,9.279913
2022-10-09T00:02:19.694Z,9.279905
2022-10-09T00:03:19.646Z,9.279889
2022-10-09T00:04:19.629Z,9.279842
2022-10-09T00:05:19.646Z,9.279936
2022-10-09T00:06:19.623Z,9.279984
2022-10-09T00:07:19.577Z,9.279957
2022-10-09T00:08:19.561Z,9.279920
2022-10-09T00:09:19.540Z,9.279987
2022-10-09T00:10:19.604Z,9.279905
2022-10-09T00:11:19.533Z,9.279951
2022-10-09T00:12:19.489Z,9.279853
2022-10-09T00:13:19.465Z,9.279943
2022-10-09T00:14:19.443Z,9.280096
2022-10-09T00:15:19.429Z,9.279964
2022-10-09T00:16:19.499Z,9.279953
2022-10-09T00:17:19.398Z,9.279902
2022-10-09T00:18:19.373Z,9.279852
2022-10-09T00:19:19.358Z,9.279889
2022-10-09T00:20:19.336Z,9.279987
2022-10-09T00:21:19.347Z,9.279957
2022-10-09T00:22:19.294Z,9.279807
2022-10-09T00:23:19.280Z,9.279851
2022-10-09T00:24:19.262Z,9.279881
2022-10-09T00:25:19.241Z,9.279911
2022-10-09T00:26:19.254Z,9.279846
2022-10-09T00:27:19.207Z,9.279875
2022-10-09T00:28:19.284Z,9.279857
2022-10-09T00:29:19.170Z,9.279850
2022-10-09T00:30:19.155Z,9.279911
2022-10-09T00:31:19.242Z,9.279958
2022-10-09T00:32:19.116Z,9.279930
2022-10-09T00:33:19.090Z,9.279876
2022-10-09T00:34:20.078Z,9.279873
2022-10-09T00:35:19.061Z,9.279964
2022-10-09T00:36:19.066Z,9.279986
2022-10-09T00:37:19.023Z,9.279935
2022-10-09T00:38:19.003Z,9.279897
2022-10-09T00:39:18.984Z,9.279912
2022-10-09T00:40:18.966Z,9.279875
2022-10-09T00:41:18.983Z,9.279875
2022-10-09T00:42:18.928Z,9.279869
2022-10-09T00:43:18.913Z,9.279907
2022-10-09T00:44:18.892Z,9.279844
2022-10-09T00:45:18.881Z,9.279834
2022-10-09T00:46:18.913Z,9.279923
2022-10-09T00:47:18.834Z,9.279887
2022-10-09T00:48:18.817Z,9.279860
2022-10-09T00:49:18.807Z,9.279893
2022-10-09T00:50:18.780Z,9.279917
2022-10-09T00:51:18.790Z,9.279827
2022-10-09T00:52:18.738Z,9.279918
2022-10-09T00:53:18.731Z,9.279902
2022-10-09T00:54:18.696Z,9.279895
2022-10-09T00:55:18.679Z,9.279844
2022-10-09T00:56:18.690Z,9.279851
2022-10-09T00:57:18.647Z,9.279870
2022-10-09T00:58:18.624Z,9.279807
2022-10-09T00:59:18.607Z,9.279829
2022-10-09T01:00:18.584Z,9.279889
2022-10-09T01:01:19.638Z,9.279937
2022-10-09T01:02:18.634Z,9.279985
2022-10-09T01:03:18.538Z,9.279863
2022-10-09T01:04:18.514Z,9.279880
2022-10-09T01:05:18.504Z,9.279878
2022-10-09T01:06:18.508Z,9.279922
2022-10-09T01:07:18.459Z,9.279882
2022-10-09T01:08:18.440Z,9.279914
2022-10-09T01:09:18.429Z,9.279803
2022-10-09T01:10:18.397Z,9.279824
2022-10-09T01:11:19.417Z,9.279857
2022-10-09T01:12:18.364Z,9.279877
2022-10-09T01:13:18.346Z,9.279866
2022-10-09T01:14:18.328Z,9.279920
2022-10-09T01:15:18.311Z,9.280003
2022-10-09T01:16:22.900Z,9.279942
2022-10-09T01:17:19.276Z,9.279799
2022-10-09T01:18:18.261Z,9.279880
2022-10-09T01:19:18.270Z,9.279836
2022-10-09T01:20:18.220Z,9.279880
2022-10-09T01:21:18.238Z,9.279963
2022-10-09T01:22:18.188Z,9.279890
2022-10-09T01:23:18.168Z,9.279932
2022-10-09T01:24:18.150Z,9.279841
2022-10-09T01:25:18.137Z,9.279970
2022-10-09T01:26:18.136Z,9.279879
2022-10-09T01:27:18.087Z,9.279930
2022-10-09T01:28:18.140Z,9.280019
2022-10-09T01:29:18.056Z,9.279964
2022-10-09T01:30:18.034Z,9.280041
2022-10-09T01:31:18.090Z,9.279909
2022-10-09T01:32:17.993Z,9.279909
2022-10-09T01:33:17.985Z,9.279864
2022-10-09T01:34:17.958Z,9.279902
2022-10-09T01:35:17.969Z,9.279825
2022-10-09T01:36:17.948Z,9.279937
2022-10-09T01:37:17.928Z,9.279962
2022-10-09T01:38:17.876Z,9.279985
2022-10-09T01:39:17.857Z,9.279870
2022-10-09T01:40:17.842Z,9.279778
2022-10-09T01:41:17.843Z,9.279907
2022-10-09T01:42:17.829Z,9.279928
2022-10-09T01:43:17.790Z,9.279966
2022-10-09T01:44:17.765Z,9.279861
2022-10-09T01:45:17.770Z,9.279738
2022-10-09T01:46:17.768Z,9.279892
2022-10-09T01:47:17.734Z,9.279896
2022-10-09T01:48:17.683Z,9.279831
2022-10-09T01:49:17.687Z,9.279758
2022-10-09T01:50:17.647Z,9.279871
2022-10-09T01:51:17.630Z,9.279910
2022-10-09T01:52:17.636Z,9.279852
2022-10-09T01:53:17.616Z,9.279804
2022-10-09T01:54:17.574Z,9.279927
2022-10-09T01:55:17.554Z,9.279878
2022-10-09T01:56:17.532Z,9.279917
2022-10-09T01:57:17.549Z,9.280021
2022-10-09T01:58:17.495Z,9.279953
2022-10-09T01:59:17.477Z,9.279868
2022-10-09T02:00:17.456Z,9.279937
2022-10-09T02:01:17.542Z,9.280039
2022-10-09T02:02:17.555Z,9.280096
2022-10-09T02:03:17.400Z,9.280156
2022-10-09T02:04:17.376Z,9.279859
2022-10-09T02:05:17.372Z,9.279940
2022-10-09T02:06:17.339Z,9.279965
2022-10-09T02:07:17.352Z,9.280036
2022-10-09T02:08:17.306Z,9.280041
2022-10-09T02:09:17.286Z,9.279940
2022-10-09T02:10:17.263Z,9.280004
2022-10-09T02:11:17.245Z,9.279963
2022-10-09T02:12:17.257Z,9.279925
2022-10-09T02:13:17.226Z,9.279995
2022-10-09T02:14:17.246Z,9.280081
2022-10-09T02:15:17.172Z,9.280142
2022-10-09T02:16:17.200Z,9.280087
2022-10-09T02:17:17.140Z,9.280011
2022-10-09T02:18:17.119Z,9.279941
2022-10-09T02:19:17.125Z,9.279831
2022-10-09T02:20:17.078Z,9.279918
2022-10-09T02:21:17.071Z,9.279895
2022-10-09T02:22:17.073Z,9.279840
2022-10-09T02:23:17.024Z,9.279867
2022-10-09T02:24:17.006Z,9.279899
2022-10-09T02:25:17.015Z,9.279814
2022-10-09T02:26:16.970Z,9.279894
2022-10-09T02:27:16.978Z,9.279628
2022-10-09T02:28:17.021Z,9.279746
2022-10-09T02:29:16.916Z,9.280058
2022-10-09T02:30:16.893Z,9.279938
2022-10-09T02:31:17.036Z,9.279871
2022-10-09T02:32:16.884Z,9.280064
2022-10-09T02:33:16.836Z,9.279994
2022-10-09T02:34:16.847Z,9.279998
2022-10-09T02:35:16.805Z,9.279937
2022-10-09T02:36:16.783Z,9.279576
2022-10-09T02:37:16.788Z,9.279804
2022-10-09T02:38:16.746Z,9.279984
2022-10-09T02:39:16.724Z,9.279984
2022-10-09T02:40:16.706Z,9.279984
2022-10-09T02:41:16.692Z,9.280021
2022-10-09T02:42:16.697Z,9.279965
2022-10-09T02:43:16.651Z,9.279954
2022-10-09T02:44:16.632Z,9.280033
2022-10-09T02:45:16.615Z,9.280038
2022-10-09T02:46:16.715Z,9.279974
2022-10-09T02:47:16.581Z,9.280044
2022-10-09T02:48:16.560Z,9.280033
2022-10-09T02:49:16.545Z,9.280020
2022-10-09T02:50:16.519Z,9.280066
2022-10-09T02:51:16.538Z,9.280038
2022-10-09T02:52:16.481Z,9.280016
2022-10-09T02:53:16.466Z,9.279977
2022-10-09T02:54:16.449Z,9.280018
2022-10-09T02:55:16.432Z,9.280033
2022-10-09T02:56:16.444Z,9.280035
2022-10-09T02:57:16.391Z,9.280005
2022-10-09T02:58:16.380Z,9.280017
2022-10-09T02:59:16.357Z,9.280025
2022-10-09T03:00:16.363Z,9.280007
2022-10-09T03:01:16.356Z,9.280037
2022-10-09T03:02:16.359Z,9.279945
2022-10-09T03:03:16.278Z,9.279991
2022-10-09T03:04:16.259Z,9.280016
2022-10-09T03:05:16.242Z,9.280048
2022-10-09T03:06:16.226Z,9.280040
2022-10-09T03:07:16.229Z,9.279959
2022-10-09T03:08:16.186Z,9.279955
2022-10-09T03:09:16.168Z,9.280059
2022-10-09T03:10:16.148Z,9.280061
2022-10-09T03:11:16.128Z,9.280064
2022-10-09T03:12:16.135Z,9.280019
2022-10-09T03:13:16.096Z,9.280066
2022-10-09T03:14:16.074Z,9.280056
2022-10-09T03:15:16.055Z,9.280052
2022-10-09T03:16:16.223Z,9.280011
2022-10-09T03:17:16.046Z,9.279956
2022-10-09T03:18:15.990Z,9.280052
2022-10-09T03:19:15.974Z,9.280039
2022-10-09T03:20:16.644Z,9.279937
2022-10-09T03:21:15.933Z,9.279883
2022-10-09T03:22:15.940Z,9.279964
2022-10-09T03:23:15.899Z,9.279959
2022-10-09T03:24:15.877Z,9.279937
2022-10-09T03:25:15.860Z,9.279984
2022-10-09T03:26:15.839Z,9.279955
2022-10-09T03:27:15.847Z,9.280046
2022-10-09T03:28:15.844Z,9.279942
2022-10-09T03:29:15.782Z,9.279986
2022-10-09T03:30:15.768Z,9.280098
2022-10-09T03:31:33.409Z,9.279994
2022-10-09T03:32:17.820Z,9.280004
2022-10-09T03:33:15.708Z,9.280064
2022-10-09T03:34:15.695Z,9.279977
2022-10-09T03:35:15.684Z,9.280025
2022-10-09T03:36:15.655Z,9.280078
2022-10-09T03:37:15.662Z,9.279997
2022-10-09T03:38:15.613Z,9.279957
2022-10-09T03:39:15.596Z,9.280038
2022-10-09T03:40:15.578Z,9.279957
2022-10-09T03:41:15.554Z,9.279963
2022-10-09T03:42:15.561Z,9.279919
2022-10-09T03:43:15.517Z,9.279936
2022-10-09T03:44:15.503Z,9.279993
2022-10-09T03:45:15.482Z,9.279993
2022-10-09T03:46:15.485Z,9.279958
2022-10-09T03:47:15.485Z,9.279934
2022-10-09T03:48:15.425Z,9.279930
2022-10-09T03:49:15.405Z,9.279881
2022-10-09T03:50:15.383Z,9.279982
2022-10-09T03:51:15.362Z,9.279919
2022-10-09T03:52:15.370Z,9.280059
2022-10-09T03:53:15.322Z,9.280053
2022-10-09T03:54:15.343Z,9.280095
2022-10-09T03:55:15.288Z,9.280049
2022-10-09T03:56:15.298Z,9.280032
2022-10-09T03:57:15.280Z,9.280009
2022-10-09T03:58:15.229Z,9.279999
2022-10-09T03:59:15.210Z,9.279970
2022-10-09T04:00:15.194Z,9.280005
2022-10-09T04:01:15.281Z,9.280124
2022-10-09T04:02:15.250Z,9.280040
2022-10-09T04:03:15.136Z,9.280072
2022-10-09T04:04:15.120Z,9.280072
2022-10-09T04:05:15.098Z,9.280120
2022-10-09T04:06:15.080Z,9.280089
2022-10-09T04:07:15.092Z,9.279982
2022-10-09T04:08:15.051Z,9.280025
2022-10-09T04:09:15.028Z,9.280012
2022-10-09T04:10:15.011Z,9.280047
2022-10-09T04:11:14.986Z,9.280052
2022-10-09T04:12:14.996Z,9.280057
2022-10-09T04:13:14.951Z,9.280058
2022-10-09T04:14:14.932Z,9.280024
2022-10-09T04:15:14.913Z,9.280054
2022-10-09T04:16:14.958Z,9.280079
2022-10-09T04:17:14.907Z,9.280029
2022-10-09T04:18:14.862Z,9.280100
2022-10-09T04:19:14.843Z,9.280047
2022-10-09T04:20:14.822Z,9.280030
2022-10-09T04:21:14.801Z,9.280143
2022-10-09T04:22:14.810Z,9.280183
2022-10-09T04:23:14.768Z,9.280231
2022-10-09T04:24:14.746Z,9.280269
2022-10-09T04:25:14.726Z,9.280130
2022-10-09T04:26:14.706Z,9.280087
2022-10-09T04:27:14.717Z,9.280079
2022-10-09T04:28:14.763Z,9.280004
2022-10-09T04:29:14.657Z,9.279965
2022-10-09T04:30:14.631Z,9.279848
2022-10-09T04:31:14.673Z,9.279904
2022-10-09T04:32:14.622Z,9.279994
2022-10-09T04:33:14.575Z,9.279962
2022-10-09T04:34:14.555Z,9.279962
2022-10-09T04:35:14.537Z,9.279948
2022-10-09T04:36:14.519Z,9.280007
2022-10-09T04:37:14.530Z,9.279957
2022-10-09T04:38:14.484Z,9.279897
2022-10-09T04:39:14.460Z,9.279987
2022-10-09T04:40:14.447Z,9.279972
2022-10-09T04:41:14.427Z,9.279877
2022-10-09T04:42:14.542Z,9.279931
2022-10-09T04:43:14.389Z,9.279982
2022-10-09T04:44:14.370Z,9.279899
2022-10-09T04:45:14.351Z,9.280030
2022-10-09T04:46:14.438Z,9.280010
2022-10-09T04:47:14.316Z,9.279923
2022-10-09T04:48:14.298Z,9.279881
2022-10-09T04:49:14.276Z,9.279930
2022-10-09T04:50:14.258Z,9.279906
2022-10-09T04:51:14.270Z,9.279864
2022-10-09T04:52:14.218Z,9.279814
2022-10-09T04:53:14.197Z,9.279865
2022-10-09T04:54:14.187Z,9.279889
2022-10-09T04:55:14.165Z,9.279877
2022-10-09T04:56:14.173Z,9.279749
2022-10-09T04:57:14.131Z,9.279801
2022-10-09T04:58:14.107Z,9.279864
2022-10-09T04:59:14.087Z,9.279844
2022-10-09T05:00:14.073Z,9.279719
2022-10-09T05:01:14.161Z,9.279811
2022-10-09T05:02:14.097Z,9.279879
2022-10-09T05:03:14.019Z,9.279940
2022-10-09T05:04:13.996Z,9.280019
2022-10-09T05:05:13.973Z,9.279974
2022-10-09T05:06:13.983Z,9.279859
2022-10-09T05:07:13.936Z,9.279806
2022-10-09T05:08:13.921Z,9.279864
2022-10-09T05:09:13.898Z,9.279967
2022-10-09T05:10:13.891Z,9.279879
2022-10-09T05:11:13.900Z,9.279879
2022-10-09T05:12:13.837Z,9.279842
2022-10-09T05:13:13.821Z,9.279850
2022-10-09T05:14:13.804Z,9.279829
2022-10-09T05:15:13.782Z,9.279842
2022-10-09T05:16:13.810Z,9.279953
2022-10-09T05:17:15.009Z,9.279957
2022-10-09T05:18:14.723Z,9.279925
2022-10-09T05:19:13.708Z,9.279905
2022-10-09T05:20:13.691Z,9.279772
2022-10-09T05:21:13.697Z,9.279853
2022-10-09T05:22:13.648Z,9.279867
2022-10-09T05:23:13.631Z,9.279887
2022-10-09T05:24:13.612Z,9.279821
2022-10-09T05:25:13.593Z,9.279902
2022-10-09T05:26:13.602Z,9.279955
2022-10-09T05:27:13.557Z,9.280099
2022-10-09T05:28:13.643Z,9.280083
2022-10-09T05:29:13.522Z,9.280127
2022-10-09T05:30:13.506Z,9.280093
2022-10-09T05:31:13.584Z,9.280216
2022-10-09T05:32:13.555Z,9.280109
2022-10-09T05:33:13.443Z,9.279981
2022-10-09T05:34:13.427Z,9.279972
2022-10-09T05:35:13.407Z,9.279993
2022-10-09T05:36:13.416Z,9.279937
2022-10-09T05:37:13.370Z,9.279967
2022-10-09T05:38:13.350Z,9.280098
2022-10-09T05:39:13.340Z,9.280002
2022-10-09T05:40:13.317Z,9.279856
2022-10-09T05:41:13.318Z,9.279902
2022-10-09T05:42:14.279Z,9.279879
2022-10-09T05:43:13.262Z,9.279853
2022-10-09T05:44:13.241Z,9.279810
2022-10-09T05:45:13.227Z,9.279815
2022-10-09T05:46:13.242Z,9.279867
2022-10-09T05:47:13.178Z,9.279935
2022-10-09T05:48:13.163Z,9.280002
2022-10-09T05:49:13.145Z,9.279969
2022-10-09T05:50:13.126Z,9.279990
2022-10-09T05:51:13.135Z,9.279920
2022-10-09T05:52:13.087Z,9.279880
2022-10-09T05:53:13.073Z,9.279941
2022-10-09T05:54:13.051Z,9.279845
2022-10-09T05:55:13.032Z,9.279956
2022-10-09T05:56:13.039Z,9.279916
2022-10-09T05:57:13.012Z,9.279916
2022-10-09T05:58:13.978Z,9.279875
2022-10-09T05:59:12.959Z,9.279886
2022-10-09T06:00:12.947Z,9.279904
2022-10-09T06:01:12.944Z,9.279902
2022-10-09T06:02:12.976Z,9.279910
2022-10-09T06:03:12.888Z,9.279975
2022-10-09T06:04:12.868Z,9.279972
2022-10-09T06:05:12.847Z,9.279951
2022-10-09T06:06:12.830Z,9.279939
2022-10-09T06:07:12.840Z,9.279965
2022-10-09T06:08:12.786Z,9.279943
2022-10-09T06:09:13.774Z,9.279925
2022-10-09T06:10:12.754Z,9.279945
2022-10-09T06:11:12.740Z,9.279900
2022-10-09T06:12:12.747Z,9.279845
2022-10-09T06:13:12.706Z,9.279840
2022-10-09T06:14:12.687Z,9.279894
2022-10-09T06:15:12.669Z,9.279883
2022-10-09T06:16:12.669Z,9.279911
2022-10-09T06:17:12.653Z,9.279976
2022-10-09T06:18:12.606Z,9.279902
2022-10-09T06:19:12.592Z,9.279963
2022-10-09T06:20:12.566Z,9.279988
2022-10-09T06:21:12.546Z,9.279993
2022-10-09T06:22:12.553Z,9.279941
2022-10-09T06:23:12.504Z,9.279951
2022-10-09T06:24:12.478Z,9.279977
2022-10-09T06:25:12.453Z,9.279974
2022-10-09T06:26:12.429Z,9.279962
2022-10-09T06:27:12.437Z,9.279985
2022-10-09T06:28:12.425Z,9.279911
2022-10-09T06:29:12.369Z,9.279887
2022-10-09T06:30:12.359Z,9.279945
2022-10-09T06:31:12.355Z,9.279947
2022-10-09T06:32:12.339Z,9.279954
2022-10-09T06:33:12.286Z,9.279983
2022-10-09T06:34:12.273Z,9.279969
2022-10-09T06:35:12.248Z,9.280006
2022-10-09T06:36:12.237Z,9.279920
2022-10-09T06:37:12.247Z,9.279988
2022-10-09T06:38:12.277Z,9.279935
2022-10-09T06:39:12.177Z,9.279887
2022-10-09T06:40:12.164Z,9.279891
2022-10-09T06:41:12.141Z,9.280005
2022-10-09T06:42:12.159Z,9.279948
2022-10-09T06:43:12.108Z,9.279958
2022-10-09T06:44:16.408Z,9.279958
2022-10-09T06:45:13.070Z,9.279967
2022-10-09T06:46:12.094Z,9.279978
2022-10-09T06:47:12.059Z,9.279974
2022-10-09T06:48:12.005Z,9.279881
2022-10-09T06:49:12.990Z,9.279965
2022-10-09T06:50:12.013Z,9.279990
2022-10-09T06:51:11.958Z,9.279862
2022-10-09T06:52:11.970Z,9.280025
2022-10-09T06:53:11.922Z,9.280015
2022-10-09T06:54:11.900Z,9.280034
2022-10-09T06:55:11.880Z,9.279962
2022-10-09T06:56:11.870Z,9.280093
2022-10-09T06:57:11.874Z,9.280091
2022-10-09T06:58:11.827Z,9.279949
2022-10-09T06:59:11.815Z,9.279964
2022-10-09T07:00:11.790Z,9.279967
2022-10-09T07:01:11.844Z,9.280112
2022-10-09T07:02:11.859Z,9.280145
2022-10-09T07:03:11.798Z,9.280033
2022-10-09T07:04:11.721Z,9.279972
2022-10-09T07:05:11.701Z,9.279968
2022-10-09T07:06:11.683Z,9.279982
2022-10-09T07:07:11.697Z,9.279943
2022-10-09T07:08:11.645Z,9.280037
2022-10-09T07:09:11.630Z,9.280056
2022-10-09T07:10:11.609Z,9.280072
2022-10-09T07:11:11.592Z,9.279987
2022-10-09T07:12:11.598Z,9.279984
2022-10-09T07:13:11.553Z,9.279921
2022-10-09T07:14:11.534Z,9.280054
2022-10-09T07:15:11.515Z,9.280026
2022-10-09T07:16:11.625Z,9.279966
2022-10-09T07:17:11.503Z,9.280061
2022-10-09T07:18:11.458Z,9.280108
2022-10-09T07:19:11.614Z,9.280146
2022-10-09T07:20:11.421Z,9.280041
2022-10-09T07:21:11.403Z,9.279987
2022-10-09T07:22:11.412Z,9.280067
2022-10-09T07:23:11.371Z,9.279980
2022-10-09T07:24:11.358Z,9.279860
2022-10-09T07:25:11.331Z,9.280053
2022-10-09T07:26:11.311Z,9.279978
2022-10-09T07:27:11.316Z,9.280032
2022-10-09T07:28:11.327Z,9.279973
2022-10-09T07:29:11.255Z,9.279863
2022-10-09T07:30:11.236Z,9.279998
2022-10-09T07:31:11.404Z,9.280055
2022-10-09T07:32:11.228Z,9.280013
2022-10-09T07:33:11.182Z,9.279990
2022-10-09T07:34:11.161Z,9.279990
2022-10-09T07:35:11.143Z,9.279899
2022-10-09T07:36:11.125Z,9.279890
2022-10-09T07:37:11.137Z,9.279932
2022-10-09T07:38:11.088Z,9.279939
2022-10-09T07:39:11.068Z,9.279904
2022-10-09T07:40:11.049Z,9.279984
2022-10-09T07:41:11.034Z,9.279968
2022-10-09T07:42:11.040Z,9.279954
2022-10-09T07:43:10.991Z,9.279896
2022-10-09T07:44:10.972Z,9.279908
2022-10-09T07:45:10.952Z,9.279909
2022-10-09T07:46:10.965Z,9.279901
2022-10-09T07:47:10.943Z,9.279925
2022-10-09T07:48:10.895Z,9.279910
2022-10-09T07:49:10.876Z,9.279907
2022-10-09T07:50:10.858Z,9.279917
2022-10-09T07:51:10.844Z,9.279920
2022-10-09T07:52:10.855Z,9.279911
2022-10-09T07:53:10.808Z,9.279994
2022-10-09T07:54:10.785Z,9.279914
2022-10-09T07:55:10.773Z,9.280034
2022-10-09T07:56:10.750Z,9.279986
2022-10-09T07:57:10.760Z,9.279922
2022-10-09T07:58:10.713Z,9.279935
2022-10-09T07:59:10.691Z,9.279970
2022-10-09T08:00:10.674Z,9.279997
2022-10-09T08:01:10.722Z,9.280017
2022-10-09T08:02:10.729Z,9.279912
2022-10-09T08:03:10.654Z,9.279897
2022-10-09T08:04:10.599Z,9.279955
2022-10-09T08:05:10.587Z,9.279939
2022-10-09T08:06:10.566Z,9.279891
2022-10-09T08:07:10.573Z,9.279827
2022-10-09T08:08:10.526Z,9.279942
2022-10-09T08:09:10.509Z,9.279928
2022-10-09T08:10:10.485Z,9.279937
2022-10-09T08:11:10.467Z,9.279913
2022-10-09T08:12:10.478Z,9.279914
2022-10-09T08:13:10.428Z,9.279922
2022-10-09T08:14:11.685Z,9.279940
2022-10-09T08:15:10.396Z,9.279952
2022-10-09T08:16:10.412Z,9.279928
2022-10-09T08:17:10.391Z,9.279968
2022-10-09T08:18:10.338Z,9.279752
2022-10-09T08:19:10.321Z,9.279843
2022-10-09T08:20:10.304Z,9.279948
2022-10-09T08:21:10.282Z,9.280057
2022-10-09T08:22:11.295Z,9.280115
2022-10-09T08:23:10.244Z,9.280031
2022-10-09T08:24:10.227Z,9.280028
2022-10-09T08:25:10.235Z,9.279993
2022-10-09T08:26:10.193Z,9.280021
2022-10-09T08:27:10.202Z,9.279967
2022-10-09T08:28:10.228Z,9.280005
2022-10-09T08:29:10.139Z,9.279944
2022-10-09T08:30:10.118Z,9.279952
2022-10-09T08:31:10.160Z,9.279912
2022-10-09T08:32:10.105Z,9.279966
2022-10-09T08:33:10.060Z,9.279953
2022-10-09T08:34:10.042Z,9.279944
2022-10-09T08:35:10.027Z,9.279935
2022-10-09T08:36:10.080Z,9.279957
2022-10-09T08:37:10.022Z,9.279890
2022-10-09T08:38:21.275Z,9.279924
2022-10-09T08:39:10.959Z,9.280023
2022-10-09T08:40:09.933Z,9.280007
2022-10-09T08:41:09.914Z,9.279943
2022-10-09T08:42:09.923Z,9.279979
2022-10-09T08:43:09.879Z,9.279922
2022-10-09T08:44:09.862Z,9.279911
2022-10-09T08:45:09.840Z,9.279988
2022-10-09T08:46:09.922Z,9.279972
2022-10-09T08:47:09.833Z,9.279957
2022-10-09T08:48:09.787Z,9.279939
2022-10-09T08:49:09.768Z,9.279976
2022-10-09T08:50:09.749Z,9.279952
2022-10-09T08:51:09.729Z,9.279879
2022-10-09T08:52:09.739Z,9.279938
2022-10-09T08:53:09.704Z,9.279962
2022-10-09T08:54:09.683Z,9.279950
2022-10-09T08:55:09.658Z,9.279908
2022-10-09T08:56:09.641Z,9.279935
2022-10-09T08:57:09.649Z,9.279835
2022-10-09T08:58:09.601Z,9.279861
2022-10-09T08:59:09.584Z,9.279934
2022-10-09T09:00:09.568Z,9.279910
2022-10-09T09:01:09.547Z,9.279919
2022-10-09T09:02:09.611Z,9.279875
2022-10-09T09:03:09.540Z,9.279839
2022-10-09T09:04:09.491Z,9.279847
2022-10-09T09:05:09.471Z,9.279848
2022-10-09T09:06:09.451Z,9.279938
2022-10-09T09:07:09.461Z,9.279907
2022-10-09T09:08:09.416Z,9.279964
2022-10-09T09:09:09.395Z,9.279954
2022-10-09T09:10:09.380Z,9.279935
2022-10-09T09:11:09.367Z,9.279898
2022-10-09T09:12:09.363Z,9.279926
2022-10-09T09:13:10.322Z,9.279961
2022-10-09T09:14:09.303Z,9.279886
2022-10-09T09:15:09.286Z,9.279904
2022-10-09T09:16:09.296Z,9.279914
2022-10-09T09:17:09.271Z,9.279893
2022-10-09T09:18:09.231Z,9.279883
2022-10-09T09:19:09.208Z,9.279929
2022-10-09T09:20:09.186Z,9.279947
2022-10-09T09:21:09.170Z,9.279856
2022-10-09T09:22:09.178Z,9.279876
2022-10-09T09:23:09.132Z,9.280035
2022-10-09T09:24:09.116Z,9.279922
2022-10-09T09:25:09.097Z,9.279833
2022-10-09T09:26:09.076Z,9.279877
2022-10-09T09:27:09.086Z,9.279805
2022-10-09T09:28:12.352Z,9.279714
2022-10-09T09:29:10.027Z,9.279828
2022-10-09T09:30:09.000Z,9.279878
2022-10-09T09:31:09.022Z,9.279931
2022-10-09T09:32:08.993Z,9.279955
2022-10-09T09:33:08.946Z,9.279819
2022-10-09T09:34:08.923Z,9.279813
2022-10-09T09:35:08.910Z,9.279930
2022-10-09T09:36:08.890Z,9.279944
2022-10-09T09:37:08.900Z,9.279861
2022-10-09T09:38:08.854Z,9.279953
2022-10-09T09:40:43.197Z,9.279943
2022-10-09T09:41:10.798Z,9.280032
2022-10-09T09:42:08.802Z,9.280054
2022-10-09T09:43:08.754Z,9.279997
2022-10-09T09:44:08.737Z,9.280049
2022-10-09T09:45:08.715Z,9.280038
2022-10-09T09:46:08.747Z,9.280096
2022-10-09T09:47:08.703Z,9.280025
2022-10-09T09:48:08.657Z,9.280096
2022-10-09T09:49:09.510Z,9.280005
2022-10-09T09:50:23.367Z,9.280100
2022-10-09T09:51:27.627Z,9.280099
2022-10-09T09:52:10.623Z,9.280003
2022-10-09T09:53:08.569Z,9.280032
2022-10-09T09:54:08.547Z,9.280031
2022-10-09T09:55:08.528Z,9.280065
2022-10-09T09:56:08.513Z,9.280027
2022-10-09T09:57:13.761Z,9.280000
2022-10-09T09:58:10.470Z,9.280022
2022-10-09T09:59:08.454Z,9.280031
2022-10-09T10:00:08.441Z,9.280020
2022-10-09T10:01:08.444Z,9.280087
2022-10-09T10:02:08.483Z,9.280090
2022-10-09T10:03:08.373Z,9.279870
2022-10-09T10:04:08.354Z,9.279901
2022-10-09T10:05:08.336Z,9.279968
2022-10-09T10:06:08.320Z,9.280068
2022-10-09T10:07:08.324Z,9.280087
2022-10-09T10:08:08.281Z,9.280094
2022-10-09T10:09:08.258Z,9.279950
2022-10-09T10:10:08.241Z,9.279971
2022-10-09T10:11:08.228Z,9.279969
2022-10-09T10:12:08.230Z,9.279818
2022-10-09T10:13:08.183Z,9.280019
2022-10-09T10:14:08.162Z,9.279839
2022-10-09T10:15:08.154Z,9.279795
2022-10-09T10:16:08.219Z,9.279870
2022-10-09T10:17:08.134Z,9.279990
2022-10-09T10:18:08.092Z,9.280120
2022-10-09T10:19:08.072Z,9.280049
2022-10-09T10:20:08.051Z,9.280029
2022-10-09T10:21:08.054Z,9.279957
2022-10-09T10:22:08.037Z,9.280084
2022-10-09T10:23:07.991Z,9.280136
2022-10-09T10:24:07.969Z,9.280099
2022-10-09T10:25:10.520Z,9.280164
2022-10-09T10:26:07.933Z,9.280009
2022-10-09T10:27:07.935Z,9.280050
2022-10-09T10:28:07.936Z,9.280004
2022-10-09T10:29:07.869Z,9.280039
2022-10-09T10:30:07.858Z,9.279934
2022-10-09T10:31:07.857Z,9.279902
2022-10-09T10:32:07.837Z,9.279903
2022-10-09T10:33:07.792Z,9.280018
2022-10-09T10:34:07.768Z,9.280031
2022-10-09T10:35:07.746Z,9.279983
2022-10-09T10:36:07.727Z,9.280010
2022-10-09T10:37:07.729Z,9.280006
2022-10-09T10:38:07.682Z,9.280009
2022-10-09T10:39:07.659Z,9.279908
2022-10-09T10:40:07.638Z,9.280186
2022-10-09T10:41:07.618Z,9.280202
2022-10-09T10:42:07.621Z,9.279954
2022-10-09T10:43:07.574Z,9.279895
2022-10-09T10:44:07.560Z,9.279860
2022-10-09T10:45:07.528Z,9.279984
2022-10-09T10:46:07.506Z,9.279953
2022-10-09T10:47:07.513Z,9.279974
2022-10-09T10:48:07.466Z,9.279947
2022-10-09T10:49:07.443Z,9.279922
2022-10-09T10:50:07.421Z,9.280005
2022-10-09T10:51:07.397Z,9.279875
2022-10-09T10:52:07.409Z,9.280073
2022-10-09T10:53:07.810Z,9.280052
2022-10-09T10:54:07.329Z,9.280062
2022-10-09T10:55:07.307Z,9.279889
2022-10-09T10:56:07.284Z,9.280025
2022-10-09T10:57:07.291Z,9.280017
2022-10-09T10:58:07.239Z,9.279958
2022-10-09T10:59:07.219Z,9.279996
2022-10-09T11:00:07.197Z,9.279992
2022-10-09T11:01:07.205Z,9.279893
2022-10-09T11:02:07.182Z,9.279959
2022-10-09T11:03:07.159Z,9.279942
2022-10-09T11:04:07.106Z,9.279845
2022-10-09T11:05:07.081Z,9.279830
2022-10-09T11:06:08.060Z,9.279900
2022-10-09T11:07:07.067Z,9.279886
2022-10-09T11:08:07.010Z,9.279787
2022-10-09T11:09:06.991Z,9.279972
2022-10-09T11:10:06.967Z,9.279948
2022-10-09T11:11:06.947Z,9.279947
2022-10-09T11:12:10.052Z,9.280009
2022-10-09T11:13:07.901Z,9.280013
2022-10-09T11:14:06.883Z,9.279968
2022-10-09T11:15:06.860Z,9.279944
2022-10-09T11:16:06.853Z,9.279943
2022-10-09T11:17:06.841Z,9.279858
2022-10-09T11:18:06.799Z,9.279860
2022-10-09T11:19:06.769Z,9.279943
2022-10-09T11:20:06.747Z,9.279985
2022-10-09T11:21:06.738Z,9.279973
2022-10-09T11:22:06.755Z,9.279964
2022-10-09T11:23:06.684Z,9.279970
2022-10-09T11:24:06.661Z,9.279996
2022-10-09T11:25:06.636Z,9.279966
2022-10-09T11:26:06.604Z,9.279981
2022-10-09T11:27:07.614Z,9.280006
2022-10-09T11:28:06.604Z,9.279976
2022-10-09T11:29:06.540Z,9.279953
2022-10-09T11:30:06.521Z,9.279978
2022-10-09T11:31:06.557Z,9.280026
2022-10-09T11:32:06.570Z,9.280005
2022-10-09T11:33:06.453Z,9.280013
2022-10-09T11:34:06.429Z,9.280044
2022-10-09T11:35:06.408Z,9.279984
2022-10-09T11:36:06.386Z,9.280023
2022-10-09T11:37:06.391Z,9.280081
2022-10-09T11:38:08.114Z,9.279974
2022-10-09T11:39:07.318Z,9.279950
2022-10-09T11:40:06.291Z,9.279915
2022-10-09T11:41:07.315Z,9.279994
2022-10-09T11:42:07.278Z,9.280037
2022-10-09T11:43:06.230Z,9.279928
2022-10-09T11:44:06.210Z,9.280088
2022-10-09T11:45:06.182Z,9.280116